Waco Regional Airport
KACT : rendu visible

Aérodrome :











RETROUVEZ-NOUS SUR...

 
LOGIN :

S'inscrire | Disclaimer

   EN    FR    IT 

 









Légende :    VFR   VFR Marginal   IFR   IFR Intensif   IFR Très Intensif
Visi : 
Plafond : 
>= 8 km
>= 3000ft
5 à 8 km
1000 à 3000 ft
1500m à 5 km
500 à 1000 ft
800 à 1500m
200 à 500 ft
< 800m
< 200 ft
Symboles :   Orages  Brouillard  Fortes neiges  Fortes précipitations  Vent > 20 kt






- Altitude de l'aérodrome : 516 ft
- Code IATA : ACT


KACT - Waco Regional

DERNIER METAR :
  • 181551Z 33016G21KT 10SM CLR 16/11 A3025 RMK AO2 SLP238 T01560106

METARs EXPIRÉS :
  • 181451Z 33010KT 10SM CLR 15/12 A3021 RMK AO2 SLP227 T01500117 53023
  • 181351Z 32010KT 10SM FEW014 SCT020 BKN033 17/14 A3017 RMK AO2 SLP213 T01670144

TAF KACT
Valide du 18 à 15h jusqu'au 19 à 12h UTC


181458Z 1815/1912 33012KT P6SM SCT200
FM181600 34015G25KT P6SM SKC
FM190100 36011KT P6SM SKC



MET'MAP, la Météo Aéronautique d'un coup d'oeil ! - Copyright ORBIFLY Décembre 2007 - Disclaimer

ORBIFLY MET'MAP TEAM :

Programmation & Développement : Alexandra Zaïnal
Sur une idée originale de : Baudouin d'Aumeries
Assistance à la programmation : Marc-Olivier Méhu
Soutien technique & logistique : Manuel Goepfert

Contact : metmap@orbifly.com




SOURCES & CREDITS :

   NOAA       Earth
Advisory